sensor_id;sensor_type;location;lat;lon;timestamp;P1;durP1;ratioP1;P2;durP2;ratioP2
70253;SDS011;57649;42.968;1.608;2024-03-06T00:02:23;10.73;;;6.10;;
70253;SDS011;57649;42.968;1.608;2024-03-06T00:04:49;9.90;;;5.63;;
70253;SDS011;57649;42.968;1.608;2024-03-06T00:07:14;9.73;;;5.38;;
70253;SDS011;57649;42.968;1.608;2024-03-06T00:09:40;9.23;;;5.28;;
70253;SDS011;57649;42.968;1.608;2024-03-06T00:12:05;9.40;;;5.65;;
70253;SDS011;57649;42.968;1.608;2024-03-06T00:14:31;7.75;;;4.75;;
70253;SDS011;57649;42.968;1.608;2024-03-06T00:16:57;11.77;;;5.88;;
70253;SDS011;57649;42.968;1.608;2024-03-06T00:19:22;8.45;;;5.35;;
70253;SDS011;57649;42.968;1.608;2024-03-06T00:21:48;9.20;;;5.53;;
70253;SDS011;57649;42.968;1.608;2024-03-06T00:24:14;8.60;;;5.13;;
70253;SDS011;57649;42.968;1.608;2024-03-06T00:26:40;11.63;;;6.82;;
70253;SDS011;57649;42.968;1.608;2024-03-06T00:29:07;10.57;;;5.68;;
70253;SDS011;57649;42.968;1.608;2024-03-06T00:31:34;7.35;;;5.10;;
70253;SDS011;57649;42.968;1.608;2024-03-06T00:34:02;11.20;;;5.55;;
70253;SDS011;57649;42.968;1.608;2024-03-06T00:36:28;6.68;;;4.75;;
70253;SDS011;57649;42.968;1.608;2024-03-06T00:38:53;10.88;;;6.13;;
70253;SDS011;57649;42.968;1.608;2024-03-06T00:41:19;10.02;;;6.32;;
70253;SDS011;57649;42.968;1.608;2024-03-06T00:43:50;8.00;;;5.57;;
70253;SDS011;57649;42.968;1.608;2024-03-06T00:46:15;8.73;;;5.47;;
70253;SDS011;57649;42.968;1.608;2024-03-06T00:48:41;9.13;;;5.57;;
70253;SDS011;57649;42.968;1.608;2024-03-06T00:51:07;8.75;;;5.15;;
70253;SDS011;57649;42.968;1.608;2024-03-06T00:53:33;10.38;;;5.45;;
70253;SDS011;57649;42.968;1.608;2024-03-06T00:56:00;7.72;;;5.50;;
70253;SDS011;57649;42.968;1.608;2024-03-06T00:58:25;8.63;;;5.45;;
70253;SDS011;57649;42.968;1.608;2024-03-06T01:00:50;8.35;;;4.95;;
70253;SDS011;57649;42.968;1.608;2024-03-06T01:03:16;7.72;;;4.70;;
70253;SDS011;57649;42.968;1.608;2024-03-06T01:05:41;8.70;;;4.38;;
70253;SDS011;57649;42.968;1.608;2024-03-06T01:08:07;8.43;;;5.07;;
70253;SDS011;57649;42.968;1.608;2024-03-06T01:10:32;7.25;;;4.50;;
70253;SDS011;57649;42.968;1.608;2024-03-06T01:12:58;8.30;;;5.25;;
70253;SDS011;57649;42.968;1.608;2024-03-06T01:15:23;11.48;;;5.15;;
70253;SDS011;57649;42.968;1.608;2024-03-06T01:17:49;9.75;;;5.22;;
70253;SDS011;57649;42.968;1.608;2024-03-06T01:20:15;9.30;;;4.63;;
70253;SDS011;57649;42.968;1.608;2024-03-06T01:22:41;7.60;;;4.85;;
70253;SDS011;57649;42.968;1.608;2024-03-06T01:25:06;11.05;;;5.80;;
70253;SDS011;57649;42.968;1.608;2024-03-06T01:27:32;10.82;;;5.40;;
70253;SDS011;57649;42.968;1.608;2024-03-06T01:29:57;6.85;;;4.20;;
70253;SDS011;57649;42.968;1.608;2024-03-06T01:32:23;10.45;;;5.68;;
70253;SDS011;57649;42.968;1.608;2024-03-06T01:34:48;10.70;;;5.07;;
70253;SDS011;57649;42.968;1.608;2024-03-06T01:37:14;6.97;;;4.70;;
70253;SDS011;57649;42.968;1.608;2024-03-06T01:39:39;8.07;;;4.88;;
70253;SDS011;57649;42.968;1.608;2024-03-06T01:42:04;11.07;;;5.45;;
70253;SDS011;57649;42.968;1.608;2024-03-06T01:44:30;7.35;;;4.80;;
70253;SDS011;57649;42.968;1.608;2024-03-06T01:46:56;7.22;;;4.72;;
70253;SDS011;57649;42.968;1.608;2024-03-06T01:49:21;7.72;;;5.30;;
70253;SDS011;57649;42.968;1.608;2024-03-06T01:51:51;7.40;;;5.20;;
70253;SDS011;57649;42.968;1.608;2024-03-06T01:54:18;9.93;;;5.35;;
70253;SDS011;57649;42.968;1.608;2024-03-06T01:56:45;9.50;;;5.32;;
70253;SDS011;57649;42.968;1.608;2024-03-06T01:59:12;7.07;;;4.35;;
70253;SDS011;57649;42.968;1.608;2024-03-06T02:01:38;7.95;;;4.80;;
70253;SDS011;57649;42.968;1.608;2024-03-06T02:04:05;11.13;;;5.60;;
70253;SDS011;57649;42.968;1.608;2024-03-06T02:06:32;10.52;;;5.57;;
70253;SDS011;57649;42.968;1.608;2024-03-06T02:08:58;8.07;;;4.88;;
70253;SDS011;57649;42.968;1.608;2024-03-06T02:11:23;8.32;;;4.63;;
70253;SDS011;57649;42.968;1.608;2024-03-06T02:13:49;9.15;;;5.20;;
70253;SDS011;57649;42.968;1.608;2024-03-06T02:16:15;8.60;;;4.70;;
70253;SDS011;57649;42.968;1.608;2024-03-06T02:18:53;9.35;;;5.38;;
70253;SDS011;57649;42.968;1.608;2024-03-06T02:21:20;9.60;;;4.93;;
70253;SDS011;57649;42.968;1.608;2024-03-06T02:23:48;8.88;;;4.65;;
70253;SDS011;57649;42.968;1.608;2024-03-06T02:26:16;8.82;;;4.68;;
70253;SDS011;57649;42.968;1.608;2024-03-06T02:28:48;8.13;;;4.60;;
70253;SDS011;57649;42.968;1.608;2024-03-06T02:31:17;8.55;;;4.70;;
70253;SDS011;57649;42.968;1.608;2024-03-06T02:33:43;11.68;;;5.32;;
70253;SDS011;57649;42.968;1.608;2024-03-06T02:36:10;10.05;;;5.57;;
70253;SDS011;57649;42.968;1.608;2024-03-06T02:38:36;8.95;;;5.10;;
70253;SDS011;57649;42.968;1.608;2024-03-06T02:41:01;8.50;;;4.63;;
70253;SDS011;57649;42.968;1.608;2024-03-06T02:43:27;8.88;;;3.97;;
70253;SDS011;57649;42.968;1.608;2024-03-06T02:45:53;7.97;;;4.22;;
70253;SDS011;57649;42.968;1.608;2024-03-06T02:48:18;8.57;;;4.30;;
70253;SDS011;57649;42.968;1.608;2024-03-06T02:50:43;8.27;;;4.18;;
70253;SDS011;57649;42.968;1.608;2024-03-06T02:53:09;8.30;;;4.50;;
70253;SDS011;57649;42.968;1.608;2024-03-06T02:55:34;8.63;;;4.65;;
70253;SDS011;57649;42.968;1.608;2024-03-06T02:58:03;8.40;;;4.20;;
70253;SDS011;57649;42.968;1.608;2024-03-06T03:00:29;10.57;;;4.73;;
70253;SDS011;57649;42.968;1.608;2024-03-06T03:02:56;6.68;;;4.38;;
70253;SDS011;57649;42.968;1.608;2024-03-06T03:05:21;8.10;;;4.60;;
70253;SDS011;57649;42.968;1.608;2024-03-06T03:07:46;8.43;;;5.07;;
70253;SDS011;57649;42.968;1.608;2024-03-06T03:10:12;9.88;;;5.03;;
70253;SDS011;57649;42.968;1.608;2024-03-06T03:12:38;7.00;;;4.47;;
70253;SDS011;57649;42.968;1.608;2024-03-06T03:15:04;10.00;;;4.45;;
70253;SDS011;57649;42.968;1.608;2024-03-06T03:17:30;8.82;;;4.47;;
70253;SDS011;57649;42.968;1.608;2024-03-06T03:19:56;7.20;;;4.13;;
70253;SDS011;57649;42.968;1.608;2024-03-06T03:22:21;8.35;;;4.22;;
70253;SDS011;57649;42.968;1.608;2024-03-06T03:24:47;7.88;;;4.45;;
70253;SDS011;57649;42.968;1.608;2024-03-06T03:27:12;6.65;;;4.70;;
70253;SDS011;57649;42.968;1.608;2024-03-06T03:29:38;7.80;;;4.40;;
70253;SDS011;57649;42.968;1.608;2024-03-06T03:32:05;7.15;;;3.83;;
70253;SDS011;57649;42.968;1.608;2024-03-06T03:34:30;5.95;;;3.70;;
70253;SDS011;57649;42.968;1.608;2024-03-06T03:36:56;6.43;;;3.90;;
70253;SDS011;57649;42.968;1.608;2024-03-06T03:39:21;6.78;;;3.50;;
70253;SDS011;57649;42.968;1.608;2024-03-06T03:41:49;8.10;;;4.03;;
70253;SDS011;57649;42.968;1.608;2024-03-06T03:44:15;5.88;;;3.53;;
70253;SDS011;57649;42.968;1.608;2024-03-06T03:46:41;7.63;;;4.38;;
70253;SDS011;57649;42.968;1.608;2024-03-06T03:49:08;11.98;;;7.15;;
70253;SDS011;57649;42.968;1.608;2024-03-06T03:51:36;8.45;;;4.57;;
70253;SDS011;57649;42.968;1.608;2024-03-06T03:54:03;7.38;;;3.25;;
70253;SDS011;57649;42.968;1.608;2024-03-06T03:56:28;7.55;;;4.75;;
70253;SDS011;57649;42.968;1.608;2024-03-06T03:58:55;4.93;;;3.17;;
70253;SDS011;57649;42.968;1.608;2024-03-06T04:01:22;7.03;;;4.07;;
70253;SDS011;57649;42.968;1.608;2024-03-06T04:03:48;4.85;;;2.60;;
70253;SDS011;57649;42.968;1.608;2024-03-06T04:06:13;7.28;;;3.05;;
70253;SDS011;57649;42.968;1.608;2024-03-06T04:08:39;6.57;;;4.45;;
70253;SDS011;57649;42.968;1.608;2024-03-06T04:11:04;5.55;;;2.80;;
70253;SDS011;57649;42.968;1.608;2024-03-06T04:13:30;6.82;;;3.55;;
70253;SDS011;57649;42.968;1.608;2024-03-06T04:15:55;8.13;;;3.47;;
70253;SDS011;57649;42.968;1.608;2024-03-06T04:18:21;6.97;;;3.28;;
70253;SDS011;57649;42.968;1.608;2024-03-06T04:20:46;6.25;;;3.38;;
70253;SDS011;57649;42.968;1.608;2024-03-06T04:23:12;5.50;;;3.20;;
70253;SDS011;57649;42.968;1.608;2024-03-06T04:25:37;6.50;;;3.22;;
70253;SDS011;57649;42.968;1.608;2024-03-06T04:28:04;7.40;;;3.20;;
70253;SDS011;57649;42.968;1.608;2024-03-06T04:30:32;6.10;;;3.35;;
70253;SDS011;57649;42.968;1.608;2024-03-06T04:33:00;9.00;;;3.53;;
70253;SDS011;57649;42.968;1.608;2024-03-06T04:35:26;8.73;;;3.55;;
70253;SDS011;57649;42.968;1.608;2024-03-06T04:37:51;5.57;;;2.92;;
70253;SDS011;57649;42.968;1.608;2024-03-06T04:40:17;5.55;;;3.00;;
70253;SDS011;57649;42.968;1.608;2024-03-06T04:42:45;7.70;;;3.30;;
70253;SDS011;57649;42.968;1.608;2024-03-06T04:45:14;5.97;;;3.45;;
70253;SDS011;57649;42.968;1.608;2024-03-06T04:47:41;4.63;;;3.10;;
70253;SDS011;57649;42.968;1.608;2024-03-06T04:50:10;5.50;;;3.42;;
70253;SDS011;57649;42.968;1.608;2024-03-06T04:52:39;6.78;;;4.03;;
70253;SDS011;57649;42.968;1.608;2024-03-06T04:55:04;6.75;;;3.65;;
70253;SDS011;57649;42.968;1.608;2024-03-06T04:57:31;3.55;;;2.45;;
70253;SDS011;57649;42.968;1.608;2024-03-06T04:59:56;6.05;;;3.30;;
70253;SDS011;57649;42.968;1.608;2024-03-06T05:02:23;4.47;;;2.88;;
70253;SDS011;57649;42.968;1.608;2024-03-06T05:04:49;4.78;;;3.00;;
70253;SDS011;57649;42.968;1.608;2024-03-06T05:07:14;5.47;;;2.47;;
70253;SDS011;57649;42.968;1.608;2024-03-06T05:09:39;5.47;;;3.00;;
70253;SDS011;57649;42.968;1.608;2024-03-06T05:12:07;5.32;;;2.90;;
70253;SDS011;57649;42.968;1.608;2024-03-06T05:14:33;6.13;;;3.58;;
70253;SDS011;57649;42.968;1.608;2024-03-06T05:16:58;5.53;;;2.63;;
70253;SDS011;57649;42.968;1.608;2024-03-06T05:19:24;4.97;;;2.53;;
70253;SDS011;57649;42.968;1.608;2024-03-06T05:21:56;7.53;;;2.85;;
70253;SDS011;57649;42.968;1.608;2024-03-06T05:24:23;4.15;;;2.85;;
70253;SDS011;57649;42.968;1.608;2024-03-06T05:26:48;5.68;;;3.25;;
70253;SDS011;57649;42.968;1.608;2024-03-06T05:29:16;5.53;;;2.65;;
70253;SDS011;57649;42.968;1.608;2024-03-06T05:31:42;3.85;;;2.65;;
70253;SDS011;57649;42.968;1.608;2024-03-06T05:34:07;4.47;;;2.33;;
70253;SDS011;57649;42.968;1.608;2024-03-06T05:36:33;4.75;;;2.55;;
70253;SDS011;57649;42.968;1.608;2024-03-06T05:38:58;5.88;;;3.42;;
70253;SDS011;57649;42.968;1.608;2024-03-06T05:41:24;6.78;;;2.85;;
70253;SDS011;57649;42.968;1.608;2024-03-06T05:43:49;3.03;;;2.25;;
70253;SDS011;57649;42.968;1.608;2024-03-06T05:46:14;5.82;;;2.78;;
70253;SDS011;57649;42.968;1.608;2024-03-06T05:48:40;6.18;;;3.17;;
70253;SDS011;57649;42.968;1.608;2024-03-06T05:51:06;4.72;;;2.90;;
70253;SDS011;57649;42.968;1.608;2024-03-06T05:53:35;5.22;;;2.40;;
70253;SDS011;57649;42.968;1.608;2024-03-06T05:56:08;7.45;;;2.65;;
70253;SDS011;57649;42.968;1.608;2024-03-06T05:58:33;5.88;;;2.75;;
70253;SDS011;57649;42.968;1.608;2024-03-06T06:01:01;8.00;;;2.65;;
70253;SDS011;57649;42.968;1.608;2024-03-06T06:03:35;5.10;;;2.90;;
70253;SDS011;57649;42.968;1.608;2024-03-06T06:06:00;8.15;;;3.28;;
70253;SDS011;57649;42.968;1.608;2024-03-06T06:08:25;5.97;;;3.30;;
70253;SDS011;57649;42.968;1.608;2024-03-06T06:10:51;5.80;;;3.13;;
70253;SDS011;57649;42.968;1.608;2024-03-06T06:13:22;5.20;;;2.75;;
70253;SDS011;57649;42.968;1.608;2024-03-06T06:15:47;5.82;;;2.85;;
70253;SDS011;57649;42.968;1.608;2024-03-06T06:18:15;8.32;;;3.42;;
70253;SDS011;57649;42.968;1.608;2024-03-06T06:20:43;5.93;;;3.28;;
70253;SDS011;57649;42.968;1.608;2024-03-06T06:23:11;6.72;;;4.00;;
70253;SDS011;57649;42.968;1.608;2024-03-06T06:25:36;5.95;;;3.53;;
70253;SDS011;57649;42.968;1.608;2024-03-06T06:28:02;5.57;;;2.88;;
70253;SDS011;57649;42.968;1.608;2024-03-06T06:30:28;5.65;;;3.03;;
70253;SDS011;57649;42.968;1.608;2024-03-06T06:32:53;4.70;;;2.75;;
70253;SDS011;57649;42.968;1.608;2024-03-06T06:35:18;5.72;;;3.50;;
70253;SDS011;57649;42.968;1.608;2024-03-06T06:40:39;10.43;;;3.45;;
70253;SDS011;57649;42.968;1.608;2024-03-06T06:46:40;9.65;;;6.28;;
70253;SDS011;57649;42.968;1.608;2024-03-06T06:54:42;6.18;;;2.95;;
70253;SDS011;57649;42.968;1.608;2024-03-06T06:57:13;4.65;;;2.70;;
70253;SDS011;57649;42.968;1.608;2024-03-06T07:00:13;4.35;;;2.38;;
70253;SDS011;57649;42.968;1.608;2024-03-06T07:02:47;6.63;;;2.95;;
70253;SDS011;57649;42.968;1.608;2024-03-06T07:09:38;6.82;;;3.17;;
70253;SDS011;57649;42.968;1.608;2024-03-06T07:12:28;3.92;;;2.50;;
70253;SDS011;57649;42.968;1.608;2024-03-06T07:15:31;8.13;;;3.05;;
70253;SDS011;57649;42.968;1.608;2024-03-06T07:17:57;6.82;;;3.50;;
70253;SDS011;57649;42.968;1.608;2024-03-06T07:20:23;6.90;;;2.97;;
70253;SDS011;57649;42.968;1.608;2024-03-06T07:22:48;5.82;;;3.00;;
70253;SDS011;57649;42.968;1.608;2024-03-06T07:25:15;7.13;;;3.30;;
70253;SDS011;57649;42.968;1.608;2024-03-06T07:27:41;5.35;;;2.67;;
70253;SDS011;57649;42.968;1.608;2024-03-06T07:30:07;5.85;;;3.42;;
70253;SDS011;57649;42.968;1.608;2024-03-06T07:32:33;12.93;;;3.42;;
70253;SDS011;57649;42.968;1.608;2024-03-06T07:35:01;7.03;;;3.22;;
70253;SDS011;57649;42.968;1.608;2024-03-06T07:37:26;6.72;;;3.10;;
70253;SDS011;57649;42.968;1.608;2024-03-06T07:39:51;10.82;;;3.95;;
70253;SDS011;57649;42.968;1.608;2024-03-06T07:42:17;7.28;;;3.45;;
70253;SDS011;57649;42.968;1.608;2024-03-06T07:44:43;12.30;;;3.70;;
70253;SDS011;57649;42.968;1.608;2024-03-06T07:47:08;5.72;;;3.92;;
70253;SDS011;57649;42.968;1.608;2024-03-06T07:49:34;7.57;;;4.10;;
70253;SDS011;57649;42.968;1.608;2024-03-06T07:52:00;6.95;;;3.72;;
70253;SDS011;57649;42.968;1.608;2024-03-06T07:54:25;12.32;;;3.35;;
70253;SDS011;57649;42.968;1.608;2024-03-06T07:56:51;5.57;;;2.97;;
70253;SDS011;57649;42.968;1.608;2024-03-06T07:59:17;7.93;;;2.80;;
70253;SDS011;57649;42.968;1.608;2024-03-06T08:01:43;7.13;;;4.13;;
70253;SDS011;57649;42.968;1.608;2024-03-06T08:04:08;7.88;;;5.70;;
70253;SDS011;57649;42.968;1.608;2024-03-06T08:06:34;6.50;;;3.67;;
70253;SDS011;57649;42.968;1.608;2024-03-06T08:09:02;4.55;;;2.92;;
70253;SDS011;57649;42.968;1.608;2024-03-06T08:11:28;7.60;;;3.40;;
70253;SDS011;57649;42.968;1.608;2024-03-06T08:13:57;5.80;;;3.10;;
70253;SDS011;57649;42.968;1.608;2024-03-06T08:16:23;7.70;;;3.08;;
70253;SDS011;57649;42.968;1.608;2024-03-06T08:18:51;12.77;;;3.63;;
70253;SDS011;57649;42.968;1.608;2024-03-06T08:21:16;13.52;;;3.90;;
70253;SDS011;57649;42.968;1.608;2024-03-06T08:23:42;7.00;;;3.22;;
70253;SDS011;57649;42.968;1.608;2024-03-06T08:26:08;5.38;;;2.80;;
70253;SDS011;57649;42.968;1.608;2024-03-06T08:28:33;7.18;;;3.50;;
70253;SDS011;57649;42.968;1.608;2024-03-06T08:31:01;5.93;;;2.92;;
70253;SDS011;57649;42.968;1.608;2024-03-06T08:33:27;4.88;;;2.95;;
70253;SDS011;57649;42.968;1.608;2024-03-06T08:35:52;6.75;;;3.00;;
70253;SDS011;57649;42.968;1.608;2024-03-06T08:38:17;7.57;;;2.33;;
70253;SDS011;57649;42.968;1.608;2024-03-06T08:40:43;6.03;;;2.20;;
70253;SDS011;57649;42.968;1.608;2024-03-06T08:43:10;5.82;;;2.45;;
70253;SDS011;57649;42.968;1.608;2024-03-06T08:45:38;3.85;;;1.70;;
70253;SDS011;57649;42.968;1.608;2024-03-06T08:48:03;3.83;;;1.83;;
70253;SDS011;57649;42.968;1.608;2024-03-06T08:50:30;5.75;;;2.28;;
70253;SDS011;57649;42.968;1.608;2024-03-06T08:52:56;3.25;;;1.70;;
70253;SDS011;57649;42.968;1.608;2024-03-06T08:55:21;3.88;;;1.80;;
70253;SDS011;57649;42.968;1.608;2024-03-06T08:57:47;4.00;;;1.98;;
70253;SDS011;57649;42.968;1.608;2024-03-06T09:00:15;3.47;;;1.80;;
70253;SDS011;57649;42.968;1.608;2024-03-06T09:02:41;2.28;;;1.50;;
70253;SDS011;57649;42.968;1.608;2024-03-06T09:05:07;2.13;;;1.45;;
70253;SDS011;57649;42.968;1.608;2024-03-06T09:07:36;4.53;;;1.77;;
70253;SDS011;57649;42.968;1.608;2024-03-06T09:10:05;6.57;;;1.60;;
70253;SDS011;57649;42.968;1.608;2024-03-06T09:12:34;5.38;;;1.90;;
70253;SDS011;57649;42.968;1.608;2024-03-06T09:15:01;4.35;;;1.80;;
70253;SDS011;57649;42.968;1.608;2024-03-06T09:17:27;5.38;;;2.78;;
70253;SDS011;57649;42.968;1.608;2024-03-06T09:19:52;7.30;;;2.40;;
70253;SDS011;57649;42.968;1.608;2024-03-06T09:22:19;4.15;;;2.00;;
70253;SDS011;57649;42.968;1.608;2024-03-06T09:24:44;5.20;;;1.77;;
70253;SDS011;57649;42.968;1.608;2024-03-06T09:27:10;4.95;;;2.78;;
70253;SDS011;57649;42.968;1.608;2024-03-06T09:29:35;5.10;;;2.22;;
70253;SDS011;57649;42.968;1.608;2024-03-06T09:32:01;4.88;;;1.60;;
70253;SDS011;57649;42.968;1.608;2024-03-06T09:34:26;6.60;;;2.60;;
70253;SDS011;57649;42.968;1.608;2024-03-06T09:36:52;4.38;;;1.67;;
70253;SDS011;57649;42.968;1.608;2024-03-06T09:39:18;4.10;;;2.60;;
70253;SDS011;57649;42.968;1.608;2024-03-06T09:41:50;3.88;;;1.98;;
70253;SDS011;57649;42.968;1.608;2024-03-06T09:44:16;4.82;;;2.22;;
70253;SDS011;57649;42.968;1.608;2024-03-06T09:46:46;5.05;;;1.90;;
70253;SDS011;57649;42.968;1.608;2024-03-06T09:49:17;6.80;;;2.38;;
70253;SDS011;57649;42.968;1.608;2024-03-06T09:54:11;5.95;;;2.15;;
70253;SDS011;57649;42.968;1.608;2024-03-06T09:56:41;3.60;;;1.75;;
70253;SDS011;57649;42.968;1.608;2024-03-06T09:59:10;3.30;;;1.63;;
70253;SDS011;57649;42.968;1.608;2024-03-06T10:01:48;3.92;;;1.73;;
70253;SDS011;57649;42.968;1.608;2024-03-06T10:04:22;4.55;;;1.50;;
70253;SDS011;57649;42.968;1.608;2024-03-06T10:06:56;2.80;;;1.58;;
70253;SDS011;57649;42.968;1.608;2024-03-06T10:09:23;3.00;;;1.80;;
70253;SDS011;57649;42.968;1.608;2024-03-06T10:11:49;3.47;;;1.20;;
70253;SDS011;57649;42.968;1.608;2024-03-06T10:14:15;4.95;;;1.30;;
70253;SDS011;57649;42.968;1.608;2024-03-06T10:16:59;4.40;;;1.60;;
70253;SDS011;57649;42.968;1.608;2024-03-06T10:19:29;3.15;;;1.25;;
70253;SDS011;57649;42.968;1.608;2024-03-06T10:22:00;3.70;;;1.00;;
70253;SDS011;57649;42.968;1.608;2024-03-06T10:24:26;4.88;;;1.88;;
70253;SDS011;57649;42.968;1.608;2024-03-06T10:26:56;3.80;;;1.50;;
70253;SDS011;57649;42.968;1.608;2024-03-06T10:29:23;6.45;;;1.35;;
70253;SDS011;57649;42.968;1.608;2024-03-06T10:31:53;10.48;;;2.33;;
70253;SDS011;57649;42.968;1.608;2024-03-06T10:34:21;5.18;;;1.20;;
70253;SDS011;57649;42.968;1.608;2024-03-06T10:36:59;3.63;;;1.60;;
70253;SDS011;57649;42.968;1.608;2024-03-06T10:39:29;4.23;;;1.30;;
70253;SDS011;57649;42.968;1.608;2024-03-06T10:41:56;2.42;;;1.08;;
70253;SDS011;57649;42.968;1.608;2024-03-06T10:44:23;5.78;;;1.45;;
70253;SDS011;57649;42.968;1.608;2024-03-06T10:46:56;4.63;;;1.05;;
70253;SDS011;57649;42.968;1.608;2024-03-06T10:49:25;5.22;;;1.02;;
70253;SDS011;57649;42.968;1.608;2024-03-06T10:51:53;3.80;;;1.30;;
70253;SDS011;57649;42.968;1.608;2024-03-06T10:54:22;3.10;;;1.05;;
70253;SDS011;57649;42.968;1.608;2024-03-06T10:56:51;3.60;;;1.30;;
70253;SDS011;57649;42.968;1.608;2024-03-06T10:59:18;7.18;;;1.20;;
70253;SDS011;57649;42.968;1.608;2024-03-06T11:01:45;2.45;;;0.80;;
70253;SDS011;57649;42.968;1.608;2024-03-06T11:04:12;4.10;;;1.40;;
70253;SDS011;57649;42.968;1.608;2024-03-06T11:06:41;3.13;;;1.45;;
70253;SDS011;57649;42.968;1.608;2024-03-06T11:09:07;6.10;;;1.10;;
70253;SDS011;57649;42.968;1.608;2024-03-06T11:11:46;4.05;;;0.93;;
70253;SDS011;57649;42.968;1.608;2024-03-06T11:14:13;5.18;;;1.20;;
70253;SDS011;57649;42.968;1.608;2024-03-06T11:16:55;3.08;;;1.10;;
70253;SDS011;57649;42.968;1.608;2024-03-06T11:19:26;4.95;;;1.25;;
70253;SDS011;57649;42.968;1.608;2024-03-06T11:21:55;2.78;;;0.90;;
70253;SDS011;57649;42.968;1.608;2024-03-06T11:24:21;5.68;;;1.50;;
70253;SDS011;57649;42.968;1.608;2024-03-06T11:26:48;3.03;;;0.93;;
70253;SDS011;57649;42.968;1.608;2024-03-06T11:29:18;4.53;;;0.70;;
70253;SDS011;57649;42.968;1.608;2024-03-06T11:32:00;2.97;;;0.70;;
70253;SDS011;57649;42.968;1.608;2024-03-06T11:34:27;5.18;;;1.00;;
70253;SDS011;57649;42.968;1.608;2024-03-06T11:36:58;4.38;;;1.55;;
70253;SDS011;57649;42.968;1.608;2024-03-06T11:39:27;3.88;;;1.13;;
70253;SDS011;57649;42.968;1.608;2024-03-06T11:41:59;3.92;;;1.00;;
70253;SDS011;57649;42.968;1.608;2024-03-06T11:44:24;4.72;;;1.20;;
70253;SDS011;57649;42.968;1.608;2024-03-06T11:46:59;4.28;;;1.20;;
70253;SDS011;57649;42.968;1.608;2024-03-06T11:49:27;3.92;;;0.98;;
70253;SDS011;57649;42.968;1.608;2024-03-06T11:52:02;3.65;;;1.05;;
70253;SDS011;57649;42.968;1.608;2024-03-06T11:54:30;2.10;;;1.00;;
70253;SDS011;57649;42.968;1.608;2024-03-06T11:56:57;4.30;;;1.05;;
70253;SDS011;57649;42.968;1.608;2024-03-06T11:59:24;2.83;;;1.00;;
70253;SDS011;57649;42.968;1.608;2024-03-06T12:01:51;2.92;;;0.90;;
70253;SDS011;57649;42.968;1.608;2024-03-06T12:04:18;4.10;;;1.30;;
70253;SDS011;57649;42.968;1.608;2024-03-06T12:06:45;4.93;;;1.00;;
70253;SDS011;57649;42.968;1.608;2024-03-06T12:09:11;2.80;;;1.00;;
70253;SDS011;57649;42.968;1.608;2024-03-06T12:11:36;3.92;;;1.10;;
70253;SDS011;57649;42.968;1.608;2024-03-06T12:14:02;5.55;;;1.10;;
70253;SDS011;57649;42.968;1.608;2024-03-06T12:16:28;5.82;;;1.02;;
70253;SDS011;57649;42.968;1.608;2024-03-06T12:18:54;4.65;;;1.15;;
70253;SDS011;57649;42.968;1.608;2024-03-06T12:26:29;3.92;;;1.23;;
70253;SDS011;57649;42.968;1.608;2024-03-06T12:29:05;2.42;;;1.10;;
70253;SDS011;57649;42.968;1.608;2024-03-06T12:31:37;4.55;;;0.88;;
70253;SDS011;57649;42.968;1.608;2024-03-06T12:34:07;4.78;;;1.40;;
70253;SDS011;57649;42.968;1.608;2024-03-06T12:36:33;2.90;;;0.77;;
70253;SDS011;57649;42.968;1.608;2024-03-06T12:38:59;3.20;;;1.00;;
70253;SDS011;57649;42.968;1.608;2024-03-06T12:41:26;3.55;;;1.30;;
70253;SDS011;57649;42.968;1.608;2024-03-06T12:43:55;2.67;;;1.02;;
70253;SDS011;57649;42.968;1.608;2024-03-06T12:46:22;3.58;;;1.15;;
70253;SDS011;57649;42.968;1.608;2024-03-06T12:48:48;4.57;;;1.60;;
70253;SDS011;57649;42.968;1.608;2024-03-06T12:51:16;4.78;;;1.20;;
70253;SDS011;57649;42.968;1.608;2024-03-06T12:53:47;5.07;;;1.50;;
70253;SDS011;57649;42.968;1.608;2024-03-06T12:56:13;4.72;;;1.70;;
70253;SDS011;57649;42.968;1.608;2024-03-06T12:58:38;5.65;;;1.13;;
70253;SDS011;57649;42.968;1.608;2024-03-06T13:01:04;4.50;;;1.00;;
70253;SDS011;57649;42.968;1.608;2024-03-06T13:03:30;4.68;;;1.20;;
70253;SDS011;57649;42.968;1.608;2024-03-06T13:05:56;2.35;;;0.82;;
70253;SDS011;57649;42.968;1.608;2024-03-06T13:08:22;3.95;;;0.93;;
70253;SDS011;57649;42.968;1.608;2024-03-06T13:10:47;4.57;;;1.08;;
70253;SDS011;57649;42.968;1.608;2024-03-06T13:13:13;5.15;;;1.52;;
70253;SDS011;57649;42.968;1.608;2024-03-06T13:15:38;4.57;;;1.55;;
70253;SDS011;57649;42.968;1.608;2024-03-06T13:18:04;2.95;;;1.00;;
70253;SDS011;57649;42.968;1.608;2024-03-06T13:20:30;5.97;;;1.20;;
70253;SDS011;57649;42.968;1.608;2024-03-06T13:22:55;4.70;;;1.50;;
70253;SDS011;57649;42.968;1.608;2024-03-06T13:25:21;3.60;;;1.00;;
70253;SDS011;57649;42.968;1.608;2024-03-06T13:27:46;4.65;;;1.08;;
70253;SDS011;57649;42.968;1.608;2024-03-06T13:30:12;5.63;;;1.27;;
70253;SDS011;57649;42.968;1.608;2024-03-06T13:32:43;4.65;;;1.10;;
70253;SDS011;57649;42.968;1.608;2024-03-06T13:35:24;5.53;;;1.90;;
70253;SDS011;57649;42.968;1.608;2024-03-06T13:37:50;3.95;;;1.02;;
70253;SDS011;57649;42.968;1.608;2024-03-06T13:40:15;4.00;;;1.30;;
70253;SDS011;57649;42.968;1.608;2024-03-06T13:42:41;3.33;;;0.88;;
70253;SDS011;57649;42.968;1.608;2024-03-06T13:45:08;5.43;;;1.25;;
70253;SDS011;57649;42.968;1.608;2024-03-06T13:47:37;5.90;;;1.30;;
70253;SDS011;57649;42.968;1.608;2024-03-06T13:50:05;4.28;;;1.30;;
70253;SDS011;57649;42.968;1.608;2024-03-06T13:52:34;4.65;;;1.00;;
70253;SDS011;57649;42.968;1.608;2024-03-06T13:55:00;6.72;;;1.80;;
70253;SDS011;57649;42.968;1.608;2024-03-06T13:57:27;3.85;;;0.95;;
70253;SDS011;57649;42.968;1.608;2024-03-06T13:59:54;6.15;;;2.60;;
70253;SDS011;57649;42.968;1.608;2024-03-06T14:02:19;5.32;;;1.40;;
70253;SDS011;57649;42.968;1.608;2024-03-06T14:04:45;5.30;;;1.08;;
70253;SDS011;57649;42.968;1.608;2024-03-06T14:07:10;7.07;;;1.77;;
70253;SDS011;57649;42.968;1.608;2024-03-06T14:09:35;5.95;;;1.38;;
70253;SDS011;57649;42.968;1.608;2024-03-06T14:12:01;3.88;;;1.15;;
70253;SDS011;57649;42.968;1.608;2024-03-06T14:14:27;5.25;;;1.40;;
70253;SDS011;57649;42.968;1.608;2024-03-06T14:16:52;3.67;;;1.30;;
70253;SDS011;57649;42.968;1.608;2024-03-06T14:19:18;4.90;;;1.60;;
70253;SDS011;57649;42.968;1.608;2024-03-06T14:21:43;7.88;;;1.38;;
70253;SDS011;57649;42.968;1.608;2024-03-06T14:24:09;7.00;;;1.40;;
70253;SDS011;57649;42.968;1.608;2024-03-06T14:26:34;6.68;;;1.25;;
70253;SDS011;57649;42.968;1.608;2024-03-06T14:29:00;3.80;;;1.45;;
70253;SDS011;57649;42.968;1.608;2024-03-06T14:31:27;5.15;;;1.30;;
70253;SDS011;57649;42.968;1.608;2024-03-06T14:33:53;7.50;;;1.20;;
70253;SDS011;57649;42.968;1.608;2024-03-06T14:36:18;4.78;;;1.40;;
70253;SDS011;57649;42.968;1.608;2024-03-06T14:38:46;6.57;;;1.30;;
70253;SDS011;57649;42.968;1.608;2024-03-06T14:41:12;5.80;;;1.30;;
70253;SDS011;57649;42.968;1.608;2024-03-06T14:43:38;3.60;;;1.20;;
70253;SDS011;57649;42.968;1.608;2024-03-06T14:46:04;7.80;;;1.90;;
70253;SDS011;57649;42.968;1.608;2024-03-06T14:48:31;3.42;;;1.42;;
70253;SDS011;57649;42.968;1.608;2024-03-06T14:50:56;7.18;;;1.30;;
70253;SDS011;57649;42.968;1.608;2024-03-06T14:53:22;5.45;;;1.80;;
70253;SDS011;57649;42.968;1.608;2024-03-06T14:55:47;4.50;;;1.38;;
70253;SDS011;57649;42.968;1.608;2024-03-06T14:58:13;7.75;;;1.50;;
70253;SDS011;57649;42.968;1.608;2024-03-06T15:00:38;4.93;;;1.42;;
70253;SDS011;57649;42.968;1.608;2024-03-06T15:03:04;5.07;;;1.17;;
70253;SDS011;57649;42.968;1.608;2024-03-06T15:05:29;5.30;;;1.38;;
70253;SDS011;57649;42.968;1.608;2024-03-06T15:07:57;3.83;;;1.30;;
70253;SDS011;57649;42.968;1.608;2024-03-06T15:10:23;6.93;;;1.70;;